createdAt,value
2022-10-21T00:03:35.498Z,14.50
2022-10-21T00:08:38.907Z,14.55
2022-10-21T00:13:41.614Z,15.02
2022-10-21T00:18:45.745Z,15.15
2022-10-21T00:23:50.120Z,14.98
2022-10-21T00:28:58.798Z,15.59
2022-10-21T00:34:01.193Z,15.39
2022-10-21T00:39:03.766Z,15.21
2022-10-21T00:44:09.311Z,14.80
2022-10-21T00:49:41.392Z,14.64
2022-10-21T00:54:46.805Z,15.24
2022-10-21T00:59:54.249Z,15.02
2022-10-21T01:05:01.083Z,14.60
2022-10-21T01:10:03.769Z,14.43
2022-10-21T01:15:20.747Z,14.40
2022-10-21T01:20:54.742Z,14.57
2022-10-21T01:26:08.992Z,14.83
2022-10-21T01:31:36.495Z,15.24
2022-10-21T01:37:01.384Z,15.99
2022-10-21T01:47:15.249Z,14.70
2022-10-21T01:52:17.939Z,14.31
2022-10-21T01:57:24.414Z,14.31
2022-10-21T02:02:34.154Z,14.56
2022-10-21T02:07:36.754Z,14.87
2022-10-21T02:12:42.471Z,15.30
2022-10-21T02:17:58.084Z,15.34
2022-10-21T02:23:01.139Z,15.39
2022-10-21T02:28:04.641Z,15.31
2022-10-21T02:33:27.432Z,15.48
2022-10-21T02:38:38.902Z,15.94
2022-10-21T02:43:50.778Z,16.32
2022-10-21T02:48:54.170Z,15.64
2022-10-21T02:53:57.191Z,15.16
2022-10-21T02:58:59.538Z,15.20
2022-10-21T03:04:01.904Z,15.27
2022-10-21T03:09:05.422Z,15.09
2022-10-21T03:14:07.846Z,15.05
2022-10-21T03:19:10.979Z,15.07
2022-10-21T03:24:19.806Z,15.12
2022-10-21T03:29:30.068Z,15.03
2022-10-21T03:34:32.483Z,14.96
2022-10-21T03:39:34.838Z,14.97
2022-10-21T03:44:37.150Z,14.97
2022-10-21T03:49:39.554Z,14.92
2022-10-21T03:54:42.180Z,14.89
2022-10-21T03:59:44.528Z,14.88
2022-10-21T04:04:46.873Z,14.88
2022-10-21T04:09:49.214Z,14.90
2022-10-21T04:14:51.588Z,14.93
2022-10-21T04:19:54.013Z,14.86
2022-10-21T04:24:58.660Z,14.86
2022-10-21T04:30:03.871Z,14.91
2022-10-21T04:35:06.688Z,14.95
2022-10-21T04:40:09.901Z,15.01
2022-10-21T04:45:12.522Z,15.03
2022-10-21T04:50:15.116Z,15.05
2022-10-21T04:55:17.539Z,15.09
2022-10-21T05:00:19.952Z,15.14
2022-10-21T05:05:22.295Z,15.20
2022-10-21T05:10:25.605Z,15.32
2022-10-21T05:15:28.032Z,15.46
2022-10-21T05:20:30.376Z,15.55
2022-10-21T05:25:34.379Z,15.72
2022-10-21T05:30:37.321Z,15.89
2022-10-21T05:35:39.870Z,16.00
2022-10-21T05:40:42.530Z,16.05
2022-10-21T05:45:45.064Z,16.06
2022-10-21T05:50:47.983Z,16.13
2022-10-21T05:56:16.581Z,16.15
2022-10-21T06:01:19.106Z,16.18
2022-10-21T06:06:21.575Z,16.16
2022-10-21T06:11:24.359Z,16.07
2022-10-21T06:16:26.772Z,15.98
2022-10-21T06:21:29.123Z,15.90
2022-10-21T06:26:34.603Z,15.84
2022-10-21T06:31:39.330Z,15.86
2022-10-21T06:36:41.932Z,15.80
2022-10-21T06:41:44.518Z,15.74
2022-10-21T06:46:54.167Z,15.65
2022-10-21T06:51:56.528Z,15.58
2022-10-21T06:56:58.890Z,15.53
2022-10-21T07:02:01.569Z,15.49
2022-10-21T07:07:04.578Z,15.49
2022-10-21T07:12:06.950Z,15.50
2022-10-21T07:17:09.537Z,15.58
2022-10-21T07:22:13.379Z,15.56
2022-10-21T07:27:15.863Z,15.72
2022-10-21T07:32:18.476Z,15.76
2022-10-21T07:37:20.881Z,15.86
2022-10-21T07:42:24.631Z,15.82
2022-10-21T07:47:27.134Z,15.76
2022-10-21T07:52:30.321Z,15.74
2022-10-21T07:57:34.617Z,15.72
2022-10-21T08:02:37.805Z,15.74
2022-10-21T08:07:40.542Z,15.77
2022-10-21T08:12:43.238Z,15.85
2022-10-21T08:17:45.847Z,15.93
2022-10-21T08:22:48.257Z,16.09
2022-10-21T08:27:50.707Z,15.97
2022-10-21T08:32:53.094Z,15.90
2022-10-21T08:37:55.681Z,15.99
2022-10-21T08:43:15.490Z,16.08
2022-10-21T08:48:24.075Z,16.02
2022-10-21T08:53:48.799Z,16.15
2022-10-21T08:58:52.794Z,16.52
2022-10-21T09:04:18.602Z,16.40
2022-10-21T09:09:26.603Z,16.05
2022-10-21T09:14:43.314Z,15.89
2022-10-21T09:20:10.190Z,16.11
2022-10-21T09:25:26.525Z,16.18
2022-10-21T09:30:28.928Z,16.27
2022-10-21T09:35:39.207Z,16.65
2022-10-21T09:40:41.750Z,16.81
2022-10-21T09:45:47.649Z,17.00
2022-10-21T09:51:12.883Z,16.85
2022-10-21T09:56:52.736Z,16.93
2022-10-21T10:01:57.303Z,17.07
2022-10-21T10:07:21.922Z,17.11
2022-10-21T10:12:26.562Z,17.31
2022-10-21T10:17:38.607Z,17.40
2022-10-21T10:22:43.163Z,17.42
2022-10-21T10:27:53.900Z,17.40
2022-10-21T10:32:57.202Z,17.19
2022-10-21T10:38:02.568Z,17.34
2022-10-21T10:43:15.811Z,17.23
2022-10-21T10:48:38.700Z,17.23
2022-10-21T10:53:41.230Z,17.25
2022-10-21T10:58:58.744Z,17.19
2022-10-21T11:04:21.477Z,17.44
2022-10-21T11:09:27.324Z,17.57
2022-10-21T11:14:29.972Z,17.81
2022-10-21T11:19:45.270Z,18.13
2022-10-21T11:24:59.793Z,17.96
2022-10-21T11:30:28.592Z,17.98
2022-10-21T11:36:09.250Z,17.99
2022-10-21T11:41:27.271Z,18.26
2022-10-21T11:46:58.364Z,18.73
2022-10-21T11:52:38.550Z,18.54
2022-10-21T11:57:57.544Z,18.33
2022-10-21T12:03:23.257Z,18.28
2022-10-21T12:08:28.554Z,18.31
2022-10-21T12:13:50.711Z,18.07
2022-10-21T12:19:00.973Z,17.87
2022-10-21T12:24:32.217Z,17.85
2022-10-21T12:30:03.107Z,17.89
2022-10-21T12:35:06.251Z,18.06
2022-10-21T12:40:25.621Z,18.09
2022-10-21T12:45:37.498Z,17.95
2022-10-21T12:50:41.322Z,17.88
2022-10-21T12:55:59.334Z,17.79
2022-10-21T13:01:02.921Z,17.68
2022-10-21T13:06:07.615Z,17.78
2022-10-21T13:11:09.932Z,17.65
2022-10-21T13:16:21.596Z,17.50
2022-10-21T13:21:29.505Z,17.39
2022-10-21T13:26:32.526Z,17.40
2022-10-21T13:31:35.332Z,17.40
2022-10-21T13:36:43.033Z,17.48
2022-10-21T13:41:45.523Z,17.29
2022-10-21T13:46:48.014Z,17.24
2022-10-21T13:51:52.962Z,17.14
2022-10-21T13:56:55.383Z,17.01
2022-10-21T14:01:58.488Z,16.94
2022-10-21T14:07:08.675Z,16.92
2022-10-21T14:12:41.918Z,16.93
2022-10-21T14:17:55.325Z,16.92
2022-10-21T14:22:57.809Z,16.86
2022-10-21T14:28:03.575Z,16.84
2022-10-21T14:33:11.210Z,16.79
2022-10-21T14:38:29.407Z,16.78
2022-10-21T14:43:35.829Z,16.72
2022-10-21T14:48:59.561Z,16.67
2022-10-21T14:54:07.980Z,16.68
2022-10-21T14:59:29.254Z,16.66
2022-10-21T15:04:51.523Z,16.63
2022-10-21T15:10:04.391Z,16.64
2022-10-21T15:15:43.448Z,16.59
2022-10-21T15:20:53.386Z,16.55
2022-10-21T15:26:00.566Z,16.54
2022-10-21T15:31:04.756Z,16.51
2022-10-21T15:36:09.848Z,16.49
2022-10-21T15:41:16.029Z,16.51
2022-10-21T15:46:18.402Z,16.52
2022-10-21T15:51:21.091Z,16.56
2022-10-21T15:56:24.397Z,16.54
2022-10-21T16:01:27.897Z,16.46
2022-10-21T16:06:30.365Z,16.40
2022-10-21T16:11:40.681Z,16.34
2022-10-21T16:16:47.352Z,16.29
2022-10-21T16:21:49.691Z,16.29
2022-10-21T16:26:52.102Z,16.27
2022-10-21T16:31:55.307Z,16.26
2022-10-21T16:36:57.726Z,16.29
2022-10-21T16:42:00.237Z,16.26
2022-10-21T16:47:03.484Z,16.26
2022-10-21T16:52:05.852Z,16.30
2022-10-21T16:57:08.326Z,16.31
2022-10-21T17:02:16.745Z,16.32
2022-10-21T17:07:19.262Z,16.35
2022-10-21T17:12:22.680Z,16.38
2022-10-21T17:17:25.203Z,16.36
2022-10-21T17:22:27.773Z,16.35
2022-10-21T17:27:30.265Z,16.34
2022-10-21T17:32:32.845Z,16.30
2022-10-21T17:37:35.275Z,16.27
2022-10-21T17:42:37.995Z,16.24
2022-10-21T17:47:41.509Z,16.21
2022-10-21T17:52:44.109Z,16.23
2022-10-21T17:57:46.974Z,16.24
2022-10-21T18:02:49.389Z,16.27
2022-10-21T18:07:51.753Z,16.30
2022-10-21T18:12:54.096Z,16.34
2022-10-21T18:17:56.458Z,16.40
2022-10-21T18:22:58.810Z,16.36
2022-10-21T18:28:01.194Z,16.29
2022-10-21T18:33:03.612Z,16.23
2022-10-21T18:38:06.078Z,16.21
2022-10-21T18:43:08.498Z,16.19
2022-10-21T18:48:10.887Z,16.19
2022-10-21T18:53:13.583Z,16.23
2022-10-21T18:58:15.984Z,16.25
2022-10-21T19:03:18.506Z,16.27
2022-10-21T19:08:20.900Z,16.31
2022-10-21T19:13:23.330Z,16.35
2022-10-21T19:18:27.589Z,16.42
2022-10-21T19:23:32.461Z,16.48
2022-10-21T19:28:36.154Z,16.54
2022-10-21T19:33:39.551Z,16.56
2022-10-21T19:38:45.186Z,16.62
2022-10-21T19:43:48.024Z,16.65
2022-10-21T19:48:50.892Z,16.67
2022-10-21T19:53:54.959Z,16.62
2022-10-21T19:58:57.907Z,16.55
2022-10-21T20:04:02.357Z,16.49
2022-10-21T20:09:13.232Z,16.46
2022-10-21T20:14:15.997Z,16.48
2022-10-21T20:19:18.397Z,16.50
2022-10-21T20:24:20.748Z,16.53
2022-10-21T20:29:23.185Z,16.54
2022-10-21T20:34:26.401Z,16.52
2022-10-21T20:39:28.905Z,16.52
2022-10-21T20:44:31.340Z,16.49
2022-10-21T20:49:33.800Z,16.51
2022-10-21T20:54:36.395Z,16.43
2022-10-21T20:59:38.759Z,16.25
2022-10-21T21:04:41.217Z,16.11
2022-10-21T21:10:01.820Z,16.06
2022-10-21T21:15:05.507Z,16.01
2022-10-21T21:20:08.604Z,15.94
2022-10-21T21:25:11.268Z,15.94
2022-10-21T21:30:14.033Z,15.84
2022-10-21T21:35:16.521Z,15.75
2022-10-21T21:40:18.881Z,15.76
2022-10-21T21:45:21.331Z,15.69
2022-10-21T21:50:23.693Z,15.62
2022-10-21T21:55:26.469Z,15.51
2022-10-21T22:00:29.197Z,15.31
2022-10-21T22:05:32.050Z,15.29
2022-10-21T22:10:34.679Z,15.26
2022-10-21T22:15:47.562Z,15.17
2022-10-21T22:20:50.738Z,15.08
2022-10-21T22:25:53.205Z,15.04
2022-10-21T22:30:59.851Z,15.14
2022-10-21T22:36:03.684Z,15.10
2022-10-21T22:41:09.916Z,15.08
2022-10-21T22:46:33.488Z,15.04
2022-10-21T22:51:36.896Z,15.05
2022-10-21T22:56:39.679Z,14.95
2022-10-21T23:01:42.217Z,14.88
2022-10-21T23:06:44.811Z,14.86
2022-10-21T23:11:47.311Z,14.85
2022-10-21T23:16:49.694Z,14.73
2022-10-21T23:21:52.055Z,14.77
2022-10-21T23:26:58.981Z,14.72
2022-10-21T23:32:04.139Z,14.57
2022-10-21T23:37:06.905Z,14.43
2022-10-21T23:42:09.370Z,14.32
2022-10-21T23:47:11.814Z,14.31
2022-10-21T23:52:14.365Z,14.21
2022-10-21T23:57:16.748Z,14.03
